Time;durP1;ratioP1;P1;durP2;ratioP2;P2;SDS_P1;SDS_P2;PMS_P1;PMS_P2;Temp;Humidity;BMP_temperature;BMP_pressure;BME280_temperature;BME280_humidity;BME280_pressure;Samples;Min_cycle;Max_cycle;Signal;HPM_P1;HPM_P2
2020/12/15 00:01:55;;;;;;;5.40;5.00;;;7.60;99.90;;;;;;5037933;28;20558;-67
2020/12/15 00:04:22;;;;;;;5.73;5.30;;;7.60;99.90;;;;;;5055722;28;20491;-67
2020/12/15 00:06:48;;;;;;;5.47;5.07;;;7.50;99.90;;;;;;5052107;28;20835;-67
2020/12/15 00:09:15;;;;;;;5.40;5.00;;;7.50;99.90;;;;;;5052212;28;20463;-67
2020/12/15 00:11:42;;;;;;;5.30;4.90;;;7.50;99.90;;;;;;5052331;28;20451;-67
2020/12/15 00:14:08;;;;;;;5.70;5.20;;;7.50;99.90;;;;;;5052151;28;20456;-67
2020/12/15 00:16:34;;;;;;;6.73;6.20;;;7.40;99.90;;;;;;5052216;28;20462;-67
2020/12/15 00:19:01;;;;;;;5.97;5.47;;;;;;;;;;5055219;28;20452;-67
2020/12/15 00:21:28;;;;;;;5.50;5.00;;;7.40;99.90;;;;;;5053650;28;20459;-67
2020/12/15 00:23:55;;;;;;;5.33;4.83;;;7.40;99.90;;;;;;5053100;28;20448;-67
2020/12/15 00:26:23;;;;;;;5.53;5.13;;;7.40;99.90;;;;;;5055094;28;20850;-67
2020/12/15 00:28:50;;;;;;;5.40;5.00;;;7.40;99.90;;;;;;5053051;28;20456;-67
2020/12/15 00:31:17;;;;;;;6.50;5.90;;;7.40;99.90;;;;;;5051156;28;20826;-66
2020/12/15 00:33:43;;;;;;;5.23;4.83;;;7.40;99.90;;;;;;5055200;28;20494;-66
2020/12/15 00:36:10;;;;;;;5.60;5.10;;;7.40;99.90;;;;;;5050287;28;20453;-67
2020/12/15 00:38:37;;;;;;;6.20;5.70;;;7.40;99.90;;;;;;5046960;28;20973;-67
2020/12/15 00:41:03;;;;;;;5.67;5.20;;;7.40;99.90;;;;;;5052412;28;20539;-67
2020/12/15 00:43:30;;;;;;;6.20;5.60;;;7.40;99.90;;;;;;5052425;28;20476;-67
2020/12/15 00:45:56;;;;;;;6.43;5.10;;;7.40;99.90;;;;;;5052584;28;20538;-67
2020/12/15 00:48:22;;;;;;;6.27;5.70;;;7.40;99.90;;;;;;5052220;28;20452;-67
2020/12/15 00:50:49;;;;;;;6.00;5.50;;;7.40;99.90;;;;;;5052110;28;20971;-68
2020/12/15 00:53:15;;;;;;;5.90;5.40;;;7.40;99.90;;;;;;5052339;28;20490;-67
2020/12/15 00:55:42;;;;;;;6.43;5.93;;;7.40;99.90;;;;;;5052792;28;20452;-67
2020/12/15 00:58:08;;;;;;;7.00;6.30;;;7.30;99.90;;;;;;5053664;28;20456;-67
2020/12/15 01:00:35;;;;;;;6.27;5.83;;;7.30;99.90;;;;;;5052748;28;20845;-66
2020/12/15 01:03:01;;;;;;;6.90;6.30;;;7.30;99.90;;;;;;5051821;28;20471;-67
2020/12/15 01:05:27;;;;;;;6.97;6.33;;;7.30;99.90;;;;;;5052486;28;20488;-67
2020/12/15 01:07:54;;;;;;;7.40;6.87;;;7.20;99.90;;;;;;5053931;28;20452;-67
2020/12/15 01:10:21;;;;;;;6.53;6.03;;;7.30;99.90;;;;;;5055700;28;20929;-66
2020/12/15 01:12:48;;;;;;;7.20;6.60;;;7.30;99.90;;;;;;5041849;28;21054;-66
2020/12/15 01:15:14;;;;;;;7.43;6.80;;;7.20;99.90;;;;;;5053559;28;20483;-67
2020/12/15 01:17:41;;;;;;;6.60;6.10;;;7.20;99.90;;;;;;5054205;28;20539;-67
2020/12/15 01:20:07;;;;;;;7.40;6.80;;;7.20;99.90;;;;;;5054480;28;20997;-67
2020/12/15 01:22:33;;;;;;;7.63;7.10;;;7.30;99.90;;;;;;5054272;28;20476;-66
2020/12/15 01:25:00;;;;;;;8.00;7.13;;;7.20;99.90;;;;;;5054279;28;20570;-67
2020/12/15 01:27:26;;;;;;;7.40;6.87;;;7.20;99.90;;;;;;5054349;28;20451;-67
2020/12/15 01:29:53;;;;;;;7.40;6.80;;;;;;;;;;5054067;28;20448;-67
2020/12/15 01:32:20;;;;;;;7.37;6.77;;;;;;;;;;5050619;28;20478;-67
2020/12/15 01:34:47;;;;;;;7.63;7.03;;;;;;;;;;5054654;28;20452;-67
2020/12/15 01:37:13;;;;;;;7.53;6.83;;;;;;;;;;5053948;28;20460;-68
2020/12/15 01:39:40;;;;;;;7.90;7.20;;;;;;;;;;5053387;28;20455;-67
2020/12/15 01:42:08;;;;;;;8.23;7.33;;;;;;;;;;5051357;28;20986;-67
2020/12/15 01:44:35;;;;;;;9.10;8.20;;;;;;;;;;5052273;28;20989;-67
2020/12/15 01:47:03;;;;;;;7.47;6.87;;;;;;;;;;5052493;28;20451;-67
2020/12/15 01:49:29;;;;;;;8.33;7.60;;;;;;;;;;5051619;28;20830;-67
2020/12/15 01:51:56;;;;;;;8.80;8.10;;;;;;;;;;5050346;28;20480;-67
2020/12/15 01:54:23;;;;;;;8.90;8.10;;;;;;;;;;5051255;28;20523;-67
2020/12/15 01:56:50;;;;;;;9.90;8.90;;;;;;;;;;5050889;28;20463;-67
2020/12/15 01:59:16;;;;;;;9.13;8.33;;;;;;;;;;5050937;28;20658;-67
2020/12/15 02:01:44;;;;;;;9.40;8.60;;;;;;;;;;5050610;28;20456;-67
2020/12/15 02:04:11;;;;;;;9.90;9.20;;;;;;;;;;5050351;28;20443;-67
2020/12/15 02:06:39;;;;;;;9.53;8.63;;;;;;;;;;5050846;28;20492;-67
2020/12/15 02:09:06;;;;;;;9.20;8.30;;;;;;;;;;5050824;28;20455;-67
2020/12/15 02:11:33;;;;;;;10.40;9.47;;;;;;;;;;5054134;28;20447;-67
2020/12/15 02:14:00;;;;;;;9.40;8.60;;;;;;;;;;5054260;28;20458;-68
2020/12/15 02:16:27;;;;;;;9.10;8.30;;;;;;;;;;5054552;28;20444;-69
2020/12/15 02:18:54;;;;;;;9.63;8.83;;;;;;;;;;5054493;28;20442;-69
2020/12/15 02:21:21;;;;;;;9.03;8.23;;;;;;;;;;5053909;28;20448;-68
2020/12/15 02:23:49;;;;;;;8.77;7.97;;;;;;;;;;5054156;28;20459;-68
2020/12/15 02:26:16;;;;;;;8.70;8.00;;;;;;;;;;5054185;28;20483;-68
2020/12/15 02:28:42;;;;;;;9.13;8.33;;;;;;;;;;5048594;28;20459;-68
2020/12/15 02:31:09;;;;;;;8.67;8.00;;;;;;;;;;5053563;28;20463;-67
2020/12/15 02:33:36;;;;;;;10.47;7.90;;;;;;;;;;5053899;28;20982;-67
2020/12/15 02:36:02;;;;;;;9.67;8.87;;;;;;;;;;5053999;28;20444;-67
2020/12/15 02:38:29;;;;;;;9.87;8.97;;;;;;;;;;5054011;28;20806;-67
2020/12/15 02:40:56;;;;;;;9.87;8.73;;;;;;;;;;5053250;28;21637;-67
2020/12/15 02:43:23;;;;;;;8.43;7.60;;;;;;;;;;5053815;28;20478;-67
2020/12/15 02:45:49;;;;;;;9.10;8.40;;;;;;;;;;5053067;28;20476;-67
2020/12/15 02:48:16;;;;;;;8.70;8.10;;;;;;;;;;5054087;28;20450;-67
2020/12/15 02:50:43;;;;;;;8.60;8.00;;;;;;;;;;5053266;28;20456;-67
2020/12/15 02:53:09;;;;;;;8.53;7.90;;;;;;;;;;5053470;28;20490;-67
2020/12/15 02:55:36;;;;;;;8.57;7.87;;;;;;;;;;5052809;28;20462;-67
2020/12/15 02:58:03;;;;;;;8.43;7.83;;;;;;;;;;5034044;28;20457;-67
2020/12/15 03:00:30;;;;;;;8.87;8.13;;;;;;;;;;5049159;28;20460;-67
2020/12/15 03:02:56;;;;;;;8.57;7.87;;;;;;;;;;5053794;28;20474;-67
2020/12/15 03:05:23;;;;;;;8.77;8.10;;;;;;;;;;5052817;28;20491;-67
2020/12/15 03:07:50;;;;;;;8.37;7.67;;;;;;;;;;5053425;28;20456;-67
2020/12/15 03:10:16;;;;;;;8.80;8.10;;;;;;;;;;5053456;28;20452;-67
2020/12/15 03:12:43;;;;;;;9.90;8.90;;;;;;;;;;5052904;28;20459;-67
2020/12/15 03:15:10;;;;;;;8.97;8.27;;;;;;;;;;5052226;28;20452;-67
2020/12/15 03:17:37;;;;;;;9.03;8.27;;;;;;;;;;5051924;28;20955;-69
2020/12/15 03:20:04;;;;;;;9.37;8.67;;;;;;;;;;5052813;28;20462;-67
2020/12/15 03:22:30;;;;;;;9.37;8.37;;;;;;;;;;5050553;28;20474;-66
2020/12/15 03:24:57;;;;;;;7.87;7.27;;;;;;;;;;5053088;28;20479;-67
2020/12/15 03:27:24;;;;;;;8.80;7.97;;;;;;;;;;5052688;28;20470;-67
2020/12/15 03:29:50;;;;;;;8.73;7.93;;;;;;;;;;5053188;28;20459;-67
2020/12/15 03:32:18;;;;;;;8.80;8.20;;;;;;;;;;5051397;28;21017;-67
2020/12/15 03:34:44;;;;;;;9.17;8.27;;;;;;;;;;5052703;28;20452;-67
2020/12/15 03:37:11;;;;;;;8.80;8.10;;;;;;;;;;5052807;28;20950;-66
2020/12/15 03:39:37;;;;;;;9.40;8.40;;;;;;;;;;5052814;28;20458;-67
2020/12/15 03:42:04;;;;;;;9.30;8.60;;;;;;;;;;5052421;28;20476;-68
2020/12/15 03:44:31;;;;;;;10.50;9.70;;;;;;;;;;5052601;28;20444;-67
2020/12/15 03:46:57;;;;;;;10.17;9.20;;;;;;;;;;5052906;28;20458;-67
2020/12/15 03:49:25;;;;;;;8.60;7.90;;;;;;;;;;5052298;28;20460;-67
2020/12/15 03:51:51;;;;;;;9.57;8.87;;;;;;;;;;5051681;28;20468;-67
2020/12/15 03:54:18;;;;;;;9.60;8.70;;;;;;;;;;5047082;28;20832;-66
2020/12/15 03:56:44;;;;;;;10.20;9.33;;;;;;;;;;5052748;28;20439;-67
2020/12/15 03:59:11;;;;;;;9.40;8.67;;;;;;;;;;5052876;28;20451;-67
2020/12/15 04:01:38;;;;;;;10.30;9.40;;;;;;;;;;5052649;28;20451;-67
2020/12/15 04:04:04;;;;;;;10.70;9.80;;;;;;;;;;5053488;28;20448;-67
2020/12/15 04:06:31;;;;;;;10.43;9.63;;;7.30;99.90;;;;;;5058694;28;20480;-67
2020/12/15 04:08:57;;;;;;;9.70;9.00;;;7.10;99.90;;;;;;5056719;28;20443;-67
2020/12/15 04:11:24;;;;;;;10.20;9.47;;;7.20;99.90;;;;;;5051208;28;20451;-67
2020/12/15 04:13:50;;;;;;;10.07;9.30;;;7.10;99.90;;;;;;5051591;28;20464;-67
2020/12/15 04:16:16;;;;;;;10.20;9.50;;;7.20;99.90;;;;;;5052564;28;20444;-67
2020/12/15 04:18:43;;;;;;;10.30;9.60;;;7.20;99.90;;;;;;5052591;28;20485;-67
2020/12/15 04:21:10;;;;;;;10.70;9.80;;;7.20;99.90;;;;;;5052168;28;20452;-67
2020/12/15 04:23:38;;;;;;;9.70;8.90;;;7.10;99.90;;;;;;5051891;28;20507;-67
2020/12/15 04:26:04;;;;;;;9.37;8.77;;;;;;;;;;5052207;28;20499;-67
2020/12/15 04:28:31;;;;;;;9.73;9.03;;;;;;;;;;5052083;28;20468;-67
2020/12/15 04:30:57;;;;;;;10.30;9.43;;;;;;;;;;5053589;28;20452;-67
2020/12/15 04:33:24;;;;;;;10.00;9.20;;;;;;;;;;5054443;28;20460;-67
2020/12/15 04:35:51;;;;;;;10.00;9.20;;;;;;;;;;5052766;28;20462;-67
2020/12/15 04:38:17;;;;;;;10.90;9.80;;;;;;;;;;5052740;28;20440;-67
2020/12/15 04:40:45;;;;;;;10.60;9.80;;;;;;;;;;5052706;28;20444;-67
2020/12/15 04:43:14;;;;;;;9.67;9.07;;;;;;;;;;5054256;28;20535;-67
2020/12/15 04:45:41;;;;;;;10.33;9.53;;;;;;;;;;5055800;28;20990;-68
2020/12/15 04:48:08;;;;;;;11.00;10.00;;;;;;;;;;5057950;28;20448;-68
2020/12/15 04:50:35;;;;;;;10.50;9.70;;;;;;;;;;5059987;28;20448;-68
2020/12/15 04:53:07;;;;;;;9.90;9.20;;;;;;;;;;5057577;28;20480;-67
2020/12/15 04:55:34;;;;;;;10.17;9.40;;;;;;;;;;5051922;28;20973;-67
2020/12/15 04:58:02;;;;;;;11.40;10.50;;;;;;;;;;5052332;28;20508;-67
2020/12/15 05:00:28;;;;;;;11.00;10.10;;;;;;;;;;5051936;28;20456;-67
2020/12/15 05:02:57;;;;;;;10.27;9.57;;;;;;;;;;5051902;28;20488;-68
2020/12/15 05:05:24;;;;;;;10.93;10.03;;;;;;;;;;5050294;28;20491;-67
2020/12/15 05:07:51;;;;;;;10.60;9.70;;;;;;;;;;5051127;28;20458;-67
2020/12/15 05:10:18;;;;;;;11.97;10.87;;;;;;;;;;5051182;28;20955;-67
2020/12/15 05:12:46;;;;;;;10.63;9.60;;;;;;;;;;5051569;28;20468;-67
2020/12/15 05:15:14;;;;;;;11.27;10.37;;;;;;;;;;5050546;28;20444;-67
2020/12/15 05:17:42;;;;;;;11.47;10.47;;;;;;;;;;5051546;28;20447;-67
2020/12/15 05:20:09;;;;;;;11.97;10.97;;;;;;;;;;5051356;28;20458;-67
2020/12/15 05:22:42;;;;;;;11.20;10.30;;;;;;;;;;5045260;28;20464;-67
2020/12/15 05:25:09;;;;;;;10.03;9.33;;;;;;;;;;5039990;28;20486;-67
2020/12/15 05:27:41;;;;;;;10.97;10.13;;;;;;;;;;5051609;28;20953;-67
2020/12/15 05:30:08;;;;;;;11.80;11.00;;;;;;;;;;5050815;28;20482;-67
2020/12/15 05:32:36;;;;;;;11.87;10.97;;;;;;;;;;5051229;28;20986;-67
2020/12/15 05:35:09;;;;;;;11.77;10.83;;;;;;;;;;5050471;28;20447;-67
2020/12/15 05:37:35;;;;;;;11.10;10.30;;;;;;;;;;5051460;28;20458;-67
2020/12/15 05:40:02;;;;;;;11.30;10.40;;;;;;;;;;5050593;28;20824;-67
2020/12/15 05:42:29;;;;;;;11.03;10.13;;;;;;;;;;5049963;28;20466;-67
2020/12/15 05:44:57;;;;;;;11.47;10.53;;;;;;;;;;5052034;28;20447;-66
2020/12/15 05:47:24;;;;;;;11.70;10.70;;;;;;;;;;5055814;28;20455;-67
2020/12/15 05:49:53;;;;;;;10.83;10.00;;;;;;;;;;5055435;28;20501;-67
2020/12/15 05:52:24;;;;;;;10.33;9.53;;;;;;;;;;5077741;22;20502;-69
2020/12/15 05:54:52;;;;;;;11.33;10.30;;;;;;;;;;5034040;28;20533;-62
2020/12/15 05:57:22;;;;;;;11.10;10.20;;;;;;;;;;5034913;28;20544;-63
2020/12/15 05:59:49;;;;;;;11.50;10.70;;;;;;;;;;5035637;28;20449;-62
2020/12/15 06:02:15;;;;;;;12.60;11.60;;;;;;;;;;5035501;28;20444;-63
2020/12/15 06:04:42;;;;;;;12.90;11.80;;;;;;;;;;5034809;28;20838;-63
2020/12/15 06:07:10;;;;;;;13.90;12.40;;;;;;;;;;5035036;28;20488;-64
2020/12/15 06:09:37;;;;;;;13.80;12.60;;;;;;;;;;5034427;28;21097;-63
2020/12/15 06:12:05;;;;;;;13.43;12.33;;;;;;;;;;5024893;28;20450;-63
2020/12/15 06:14:32;;;;;;;14.30;13.20;;;;;;;;;;5027723;28;20456;-64
2020/12/15 06:16:58;;;;;;;14.30;13.20;;;;;;;;;;5034993;28;20449;-65
2020/12/15 06:19:25;;;;;;;15.73;14.33;;;;;;;;;;5034222;28;20459;-64
2020/12/15 06:21:53;;;;;;;15.97;14.63;;;;;;;;;;5035271;28;20448;-63
2020/12/15 06:24:25;;;;;;;17.00;15.60;;;;;;;;;;5034208;28;20465;-62
2020/12/15 06:26:55;;;;;;;16.60;15.20;;;;;;;;;;5026187;28;20481;-64
2020/12/15 06:29:27;;;;;;;15.90;14.50;;;;;;;;;;5024674;28;20523;-64
2020/12/15 06:31:55;;;;;;;18.20;16.70;;;;;;;;;;5034928;28;20973;-63
2020/12/15 06:34:25;;;;;;;16.90;15.50;;;;;;;;;;5040045;28;20472;-64
2020/12/15 06:36:55;;;;;;;17.50;16.03;;;;;;;;;;5054689;28;20436;-64
2020/12/15 06:39:22;;;;;;;15.73;14.50;;;7.80;99.90;;;;;;5040123;28;20471;-64
2020/12/15 06:41:56;;;;;;;16.83;15.53;;;8.10;99.90;;;;;;5034126;28;20456;-64
2020/12/15 06:44:30;;;;;;;16.20;14.80;;;8.10;99.90;;;;;;5033858;28;21001;-65
2020/12/15 06:46:56;;;;;;;16.53;15.00;;;8.10;99.90;;;;;;5047095;28;20529;-63
2020/12/15 06:49:27;;;;;;;17.53;16.03;;;8.20;99.90;;;;;;5039869;28;20460;-66
2020/12/15 06:51:56;;;;;;;15.97;14.53;;;8.20;99.90;;;;;;5048159;28;20478;-63
2020/12/15 06:54:26;;;;;;;16.27;14.87;;;8.20;99.90;;;;;;5040441;28;20507;-64
2020/12/15 06:57:04;;;;;;;16.43;15.03;;;8.20;99.90;;;;;;5033466;28;21009;-63
2020/12/15 06:59:35;;;;;;;16.00;14.57;;;;;;;;;;5034072;28;20799;-64
2020/12/15 07:02:09;;;;;;;15.90;14.70;;;;;;;;;;5034168;28;20455;-64
2020/12/15 07:04:41;;;;;;;15.33;13.93;;;;;;;;;;5037390;28;20970;-65
2020/12/15 07:07:08;;;;;;;8.13;5.70;;;;;;;;;;5052904;28;20497;-70
2020/12/15 07:09:34;;;;;;;7.20;4.93;;;;;;;;;;5040805;28;20456;-66
2020/12/15 07:12:04;;;;;;;10.80;5.80;;;;;;;;;;5032866;28;20944;-66
2020/12/15 07:14:30;;;;;;;11.77;5.90;;;;;;;;;;5022124;28;20450;-66
2020/12/15 07:16:57;;;;;;;6.37;5.67;;;;;;;;;;5040408;28;20453;-67
2020/12/15 07:19:23;;;;;;;4.20;3.77;;;;;;;;;;5031438;28;20464;-65
2020/12/15 07:21:50;;;;;;;5.70;3.40;;;;;;;;;;5034000;28;20506;-65
2020/12/15 07:24:17;;;;;;;5.57;3.77;;;;;;;;;;5033397;28;20468;-65
2020/12/15 07:26:44;;;;;;;7.10;4.50;;;;;;;;;;5033800;28;20481;-66
2020/12/15 07:29:12;;;;;;;4.30;3.40;;;;;;;;;;5033346;28;20453;-66
2020/12/15 07:31:39;;;;;;;4.50;3.73;;;;;;;;;;5034108;28;20448;-66
2020/12/15 07:34:09;;;;;;;4.23;3.83;;;;;;;;;;5025332;28;20477;-66
2020/12/15 07:36:37;;;;;;;4.60;3.83;;;;;;;;;;5036397;28;20444;-66
2020/12/15 07:39:05;;;;;;;3.53;3.10;;;;;;;;;;5045516;28;20928;-66
2020/12/15 07:41:36;;;;;;;4.77;3.57;;;;;;;;;;5045802;28;20471;-66
2020/12/15 07:44:03;;;;;;;3.47;3.20;;;;;;;;;;5045349;28;20465;-66
2020/12/15 07:46:31;;;;;;;5.93;2.93;;;;;;;;;;5046099;28;20480;-66
2020/12/15 07:48:59;;;;;;;2.77;2.57;;;;;;;;;;5046714;28;20544;-66
2020/12/15 07:51:25;;;;;;;2.97;2.43;;;;;;;;;;5052899;28;20474;-66
2020/12/15 07:53:53;;;;;;;2.83;2.53;;;;;;;;;;5055307;28;20478;-66
2020/12/15 07:56:19;;;;;;;3.00;2.70;;;;;;;;;;5057819;28;20521;-66
2020/12/15 07:58:49;;;;;;;3.00;2.70;;;;;;;;;;5034209;28;20818;-67
2020/12/15 08:01:20;;;;;;;3.87;2.80;;;;;;;;;;5033953;28;20962;-66
2020/12/15 08:03:47;;;;;;;4.93;3.43;;;;;;;;;;5036506;28;20465;-66
2020/12/15 08:06:14;;;;;;;3.30;3.00;;;;;;;;;;5040887;28;20491;-66
2020/12/15 08:08:41;;;;;;;2.80;2.60;;;;;;;;;;5052810;28;20550;-66
2020/12/15 08:11:14;;;;;;;3.60;3.30;;;;;;;;;;5053942;28;20448;-66
2020/12/15 08:13:41;;;;;;;3.33;3.03;;;;;;;;;;5041528;28;20468;-66
2020/12/15 08:16:08;;;;;;;3.90;2.97;;;;;;;;;;5033583;28;20452;-66
2020/12/15 08:18:35;;;;;;;3.33;3.03;;;;;;;;;;5032716;28;20453;-68
2020/12/15 08:21:04;;;;;;;4.00;3.00;;;;;;;;;;5033552;28;20445;-69
2020/12/15 08:23:31;;;;;;;2.43;2.20;;;;;;;;;;5032789;28;20480;-67
2020/12/15 08:25:58;;;;;;;3.13;2.83;;;;;;;;;;5031462;28;20566;-68
2020/12/15 08:28:25;;;;;;;2.93;2.60;;;;;;;;;;5032804;28;20452;-68
2020/12/15 08:30:52;;;;;;;14.90;3.60;;;;;;;;;;5032586;28;21008;-66
2020/12/15 08:33:23;;;;;;;5.50;3.03;;;;;;;;;;5032840;28;20479;-67
2020/12/15 08:35:50;;;;;;;4.83;3.40;;;;;;;;;;5029874;28;20876;-65
2020/12/15 08:38:20;;;;;;;11.27;2.80;;;;;;;;;;5031901;28;20468;-65
2020/12/15 08:40:52;;;;;;;3.00;2.70;;;;;;;;;;5038912;28;20992;-66
2020/12/15 08:43:19;;;;;;;3.50;2.80;;;;;;;;;;5044426;28;20477;-66
2020/12/15 08:45:46;;;;;;;4.30;2.93;;;;;;;;;;5032392;28;20531;-66
2020/12/15 08:48:17;;;;;;;3.93;2.63;;;;;;;;;;5020794;28;20948;-66
2020/12/15 08:50:44;;;;;;;5.30;3.10;;;;;;;;;;5036675;28;20509;-66
2020/12/15 08:53:11;;;;;;;2.80;2.60;;;;;;;;;;5047062;28;20481;-66
2020/12/15 08:55:39;;;;;;;3.00;2.80;;;;;;;;;;5032261;28;20449;-66
2020/12/15 08:58:06;;;;;;;2.60;2.40;;;;;;;;;;5032531;28;20853;-66
2020/12/15 09:00:34;;;;;;;3.00;2.70;;;;;;;;;;5032864;28;20452;-66
2020/12/15 09:03:08;;;;;;;4.67;3.27;;;;;;;;;;5031902;28;20851;-66
2020/12/15 09:05:45;;;;;;;5.13;2.80;;;;;;;;;;5041436;28;21004;-68
2020/12/15 09:08:11;;;;;;;9.73;3.93;;;;;;;;;;5047161;28;20453;-70
2020/12/15 09:10:39;;;;;;;11.60;10.70;;;;;;;;;;5032257;28;20466;-65
2020/12/15 09:13:06;;;;;;;15.87;14.57;;;;;;;;;;5028862;28;20488;-64
2020/12/15 09:15:32;;;;;;;17.67;16.17;;;;;;;;;;5030572;28;20453;-72
2020/12/15 09:17:59;;;;;;;18.30;16.63;;;;;;;;;;5031560;28;20459;-71
2020/12/15 09:20:26;;;;;;;18.23;16.70;;;;;;;;;;5034133;28;20460;-69
2020/12/15 09:22:53;;;;;;;19.50;17.77;;;;;;;;;;5035415;28;21006;-67
2020/12/15 09:25:20;;;;;;;18.80;17.20;;;;;;;;;;5033637;28;20463;-65
2020/12/15 09:27:48;;;;;;;20.70;18.77;;;;;;;;;;5035850;28;20647;-68
2020/12/15 09:30:16;;;;;;;19.43;17.60;;;;;;;;;;5043324;28;20453;-65
2020/12/15 09:32:43;;;;;;;19.53;17.70;;;;;;;;;;5016024;28;20484;-68
2020/12/15 09:35:10;;;;;;;18.20;16.80;;;;;;;;;;5031839;28;20452;-69
2020/12/15 09:37:36;;;;;;;19.90;18.03;;;;;;;;;;5034925;28;20459;-69
2020/12/15 09:40:04;;;;;;;19.87;18.27;;;;;;;;;;5035330;28;20440;-68
2020/12/15 09:42:32;;;;;;;17.40;15.90;;;;;;;;;;5039021;28;20467;-69
2020/12/15 09:45:00;;;;;;;19.73;18.00;;;;;;;;;;5055055;28;20443;-67
2020/12/15 09:47:26;;;;;;;17.80;16.30;;;;;;;;;;5034806;28;21073;-68
2020/12/15 09:49:53;;;;;;;16.37;14.50;;;;;;;;;;5035111;28;20498;-68
2020/12/15 09:52:20;;;;;;;37.53;18.00;;;;;;;;;;5037475;28;20459;-67
2020/12/15 09:54:46;;;;;;;14.50;13.20;;;;;;;;;;5044944;28;20455;-72
2020/12/15 09:57:13;;;;;;;15.50;14.30;;;;;;;;;;5034717;28;20821;-69
2020/12/15 09:59:39;;;;;;;15.70;14.47;;;;;;;;;;5025881;28;20461;-68
2020/12/15 10:02:07;;;;;;;16.40;15.10;;;;;;;;;;5033477;28;20502;-68
2020/12/15 10:04:33;;;;;;;16.67;15.10;;;;;;;;;;5026078;28;20492;-66
2020/12/15 10:07:01;;;;;;;15.83;14.57;;;;;;;;;;5019982;28;20999;-66
2020/12/15 10:09:27;;;;;;;14.53;13.10;;;;;;;;;;5034739;28;20764;-68
2020/12/15 10:11:54;;;;;;;14.60;13.50;;;;;;;;;;5034520;28;20944;-68
2020/12/15 10:14:21;;;;;;;16.30;14.80;;;;;;;;;;5034208;28;20483;-72
2020/12/15 10:16:48;;;;;;;15.20;14.00;;;;;;;;;;5034291;28;20452;-68
2020/12/15 10:19:15;;;;;;;16.93;15.50;;;;;;;;;;5034533;28;20448;-66
2020/12/15 10:21:42;;;;;;;16.90;15.50;;;;;;;;;;5044364;28;20455;-71
2020/12/15 10:24:09;;;;;;;15.93;14.60;;;;;;;;;;5033963;28;20870;-73
2020/12/15 10:26:35;;;;;;;16.30;14.80;;;;;;;;;;5033214;28;20488;-75
2020/12/15 10:29:02;;;;;;;15.60;14.40;;;;;;;;;;5034127;28;20457;-73
2020/12/15 10:31:29;;;;;;;14.27;12.97;;;;;;;;;;5033370;28;20453;-69
2020/12/15 10:33:56;;;;;;;14.60;13.40;;;;;;;;;;5033643;28;20508;-67
2020/12/15 10:36:23;;;;;;;13.37;12.17;;;;;;;;;;5034124;28;20456;-69
2020/12/15 10:38:50;;;;;;;11.90;10.90;;;;;;;;;;5034939;28;20448;-70
2020/12/15 10:41:16;;;;;;;13.13;11.97;;;;;;;;;;5033743;28;20821;-71
2020/12/15 10:43:43;;;;;;;11.80;10.90;;;;;;;;;;5034084;28;20564;-77
2020/12/15 10:46:10;;;;;;;12.20;11.30;;;;;;;;;;5032221;28;20487;-80
2020/12/15 10:48:37;;;;;;;13.20;12.20;;;;;;;;;;5026459;28;20452;-74
2020/12/15 10:51:04;;;;;;;13.47;12.37;;;;;;;;;;5037481;28;20487;-71
2020/12/15 10:53:32;;;;;;;12.13;11.13;;;;;;;;;;5033021;28;20532;-73
2020/12/15 10:55:59;;;;;;;12.57;11.47;;;;;;;;;;5033554;28;20559;-71
2020/12/15 10:58:25;;;;;;;13.30;12.10;;;;;;;;;;5034853;28;20448;-75
2020/12/15 11:00:52;;;;;;;13.67;12.47;;;;;;;;;;5034741;28;20457;-75
2020/12/15 11:03:19;;;;;;;14.07;12.70;;;;;;;;;;5034004;28;20499;-72
2020/12/15 11:05:45;;;;;;;12.10;11.03;;;;;;;;;;5033582;28;20515;-72
2020/12/15 11:08:12;;;;;;;14.93;13.50;;;;;;;;;;5034505;28;20921;-73
2020/12/15 11:10:39;;;;;;;15.67;14.30;;;;;;;;;;5033966;28;20502;-72
2020/12/15 11:13:06;;;;;;;14.77;13.60;;;;;;;;;;5034725;28;20473;-76
2020/12/15 11:15:33;;;;;;;15.13;13.87;;;;;;;;;;5033308;28;20456;-75
2020/12/15 11:18:00;;;;;;;14.67;13.47;;;;;;;;;;5025734;28;20848;-74
2020/12/15 11:20:27;;;;;;;15.90;14.50;;;;;;;;;;5028048;28;20963;-73
2020/12/15 11:22:53;;;;;;;16.50;15.00;;;;;;;;;;5034746;28;20976;-73
2020/12/15 11:25:20;;;;;;;15.60;14.23;;;;;;;;;;5052259;28;20854;-70
2020/12/15 11:27:47;;;;;;;16.17;14.70;;;;;;;;;;5054682;28;20462;-69
2020/12/15 11:30:14;;;;;;;14.60;13.40;;;;;;;;;;5045932;28;20471;-74
2020/12/15 11:32:41;;;;;;;17.00;15.50;;;;;;;;;;5034547;28;20476;-69
2020/12/15 11:35:07;;;;;;;15.57;14.10;;;;;;;;;;5034753;28;20510;-71
2020/12/15 11:37:38;;;;;;;16.97;15.60;;;;;;;;;;5017979;28;20454;-71
2020/12/15 11:40:04;;;;;;;16.27;14.97;;;;;;;;;;5014986;28;20437;-70
2020/12/15 11:42:31;;;;;;;16.73;15.13;;;;;;;;;;5014336;28;20472;-73
2020/12/15 11:44:58;;;;;;;16.53;14.97;;;;;;;;;;5014348;28;20450;-75
2020/12/15 11:47:25;;;;;;;17.07;15.77;;;;;;;;;;5014541;28;20477;-74
2020/12/15 11:49:52;;;;;;;15.60;14.10;;;;;;;;;;5018333;28;20453;-73
2020/12/15 11:52:18;;;;;;;15.50;14.20;;;;;;;;;;5034102;28;20453;-70
2020/12/15 11:54:45;;;;;;;16.77;15.27;;;;;;;;;;5067633;22;20499;-70
2020/12/15 11:57:14;;;;;;;16.17;14.83;;;;;;;;;;5052376;28;20452;-72
2020/12/15 11:59:40;;;;;;;16.27;14.97;;;;;;;;;;5045734;28;20547;-70
2020/12/15 12:02:08;;;;;;;16.37;14.97;;;;;;;;;;5051657;28;20454;-71
2020/12/15 12:04:34;;;;;;;16.30;14.80;;;;;;;;;;5042883;28;20467;-70
2020/12/15 12:07:01;;;;;;;16.30;14.90;;;;;;;;;;5052454;28;20490;-71
2020/12/15 12:09:28;;;;;;;16.60;15.20;;;;;;;;;;5051873;28;20959;-71
2020/12/15 12:11:54;;;;;;;18.13;16.33;;;;;;;;;;5036760;28;20470;-71
2020/12/15 12:14:21;;;;;;;16.53;15.03;;;;;;;;;;5050821;28;20471;-70
2020/12/15 12:16:48;;;;;;;16.17;14.77;;;;;;;;;;5052093;28;20460;-71
2020/12/15 12:19:15;;;;;;;15.73;14.40;;;;;;;;;;5052262;28;20456;-71
2020/12/15 12:21:42;;;;;;;15.70;14.30;;;;;;;;;;5053171;28;20455;-74
2020/12/15 12:24:08;;;;;;;16.50;15.00;;;;;;;;;;5051279;28;20468;-74
2020/12/15 12:26:35;;;;;;;16.87;15.37;;;;;;;;;;5051404;28;20829;-71
2020/12/15 12:29:02;;;;;;;17.20;15.47;;;;;;;;;;5051569;28;20451;-71
2020/12/15 12:31:28;;;;;;;18.30;16.30;;;;;;;;;;5062055;28;20459;-71
2020/12/15 12:33:55;;;;;;;15.77;14.27;;;;;;;;;;5055027;28;20578;-71
2020/12/15 12:36:22;;;;;;;15.30;13.97;;;;;;;;;;5051809;28;20444;-71
2020/12/15 12:38:49;;;;;;;15.20;13.97;;;;;;;;;;5051487;28;20935;-72
2020/12/15 12:41:16;;;;;;;15.53;14.13;;;;;;;;;;5051697;28;20471;-71
2020/12/15 12:43:43;;;;;;;15.20;13.93;;;;;;;;;;5051254;28;20472;-72
2020/12/15 12:46:14;;;;;;;13.63;12.37;;;;;;;;;;5051311;28;20541;-72
2020/12/15 12:48:41;;;;;;;14.97;13.63;;;;;;;;;;5039069;28;20448;-72
2020/12/15 12:51:07;;;;;;;14.50;13.20;;;;;;;;;;5051658;28;20462;-72
2020/12/15 12:53:35;;;;;;;14.40;13.13;;;;;;;;;;5050906;28;20482;-71
2020/12/15 12:56:04;;;;;;;16.67;15.07;;;;;;;;;;5051545;28;20444;-71
2020/12/15 12:58:30;;;;;;;13.53;12.43;;;;;;;;;;5051042;28;20456;-71
2020/12/15 13:00:57;;;;;;;14.70;13.50;;;;;;;;;;5052267;28;20454;-71
2020/12/15 13:03:23;;;;;;;14.73;13.37;;;;;;;;;;5051500;28;20521;-72
2020/12/15 13:05:50;;;;;;;15.23;13.93;;;;;;;;;;5050197;28;21076;-68
2020/12/15 13:08:17;;;;;;;15.60;14.30;;;;;;;;;;5051511;28;20505;-67
2020/12/15 13:10:44;;;;;;;15.57;14.27;;;;;;;;;;5032666;28;20467;-68
2020/12/15 13:13:11;;;;;;;16.03;14.50;;;;;;;;;;5052126;28;20451;-68
2020/12/15 13:15:40;;;;;;;17.83;16.30;;;;;;;;;;5050203;28;20460;-71
2020/12/15 13:18:07;;;;;;;16.33;14.93;;;;;;;;;;5051332;28;20546;-67
2020/12/15 13:20:33;;;;;;;17.80;16.20;;;;;;;;;;5050696;28;20456;-70
2020/12/15 13:23:00;;;;;;;19.50;17.83;;;;;;;;;;5050923;28;20459;-70
2020/12/15 13:25:27;;;;;;;19.20;17.60;;;;;;;;;;5050117;28;20471;-70
2020/12/15 13:27:54;;;;;;;19.77;17.87;;;;;;;;;;5050461;28;20479;-71
2020/12/15 13:30:21;;;;;;;20.70;18.87;;;;;;;;;;5050557;28;20510;-69
2020/12/15 13:32:47;;;;;;;20.20;18.30;;;;;;;;;;5063404;28;20489;-70
2020/12/15 13:35:14;;;;;;;19.83;18.13;;;;;;;;;;5049988;28;20990;-71
2020/12/15 13:37:41;;;;;;;18.90;17.10;;;;;;;;;;5050785;28;20451;-71
2020/12/15 13:40:07;;;;;;;28.30;25.33;;;;;;;;;;5049672;28;20483;-71
2020/12/15 13:42:35;;;;;;;20.67;18.87;;;;;;;;;;5051406;28;20455;-71
2020/12/15 13:45:03;;;;;;;20.90;19.10;;;;;;;;;;5050611;28;20855;-70
2020/12/15 13:47:30;;;;;;;21.13;19.13;;;;;;;;;;5050909;28;20495;-70
2020/12/15 13:49:56;;;;;;;20.80;18.90;;;;;;;;;;5048624;28;20472;-70
2020/12/15 13:52:23;;;;;;;20.90;19.20;;;;;;;;;;5050408;28;20459;-69
2020/12/15 13:54:50;;;;;;;19.70;18.13;;;;;;;;;;5050090;28;20495;-67
2020/12/15 13:57:17;;;;;;;23.03;20.77;;;;;;;;;;5057241;28;21274;-69
2020/12/15 13:59:43;;;;;;;22.00;19.70;;;;;;;;;;5056081;28;20531;-68
2020/12/15 14:02:11;;;;;;;23.47;21.10;;;;;;;;;;5053757;28;20521;-67
2020/12/15 14:04:37;;;;;;;23.83;21.60;;;;;;;;;;5042900;28;20479;-69
2020/12/15 14:07:05;;;;;;;23.67;21.60;;;;;;;;;;5054055;28;20888;-71
2020/12/15 14:09:32;;;;;;;25.50;23.23;;;;;;;;;;5053282;28;20467;-69
2020/12/15 14:11:58;;;;;;;26.13;23.67;;;;;;;;;;5054536;28;21008;-71